createdAt,value
2023-01-26T00:00:21.471Z,98662.81
2023-01-26T00:03:33.234Z,98651.78
2023-01-26T00:06:41.074Z,98652.91
2023-01-26T00:09:52.335Z,98660.09
2023-01-26T00:12:59.322Z,98666.88
2023-01-26T00:16:06.931Z,98657.94
2023-01-26T00:19:16.462Z,98652.25
2023-01-26T00:22:22.644Z,98658.50
2023-01-26T00:25:29.603Z,98642.97
2023-01-26T00:28:35.673Z,98633.94
2023-01-26T00:31:42.607Z,98628.53
2023-01-26T00:34:51.427Z,98628.25
2023-01-26T00:37:58.278Z,98627.06
2023-01-26T00:41:04.508Z,98627.31
2023-01-26T00:44:11.528Z,98624.81
2023-01-26T00:47:17.897Z,98592.63
2023-01-26T00:50:27.437Z,98615.28
2023-01-26T00:53:35.927Z,98623.09
2023-01-26T00:56:42.798Z,98616.66
2023-01-26T00:59:48.886Z,98618.50
2023-01-26T01:02:57.408Z,98613.88
2023-01-26T01:06:06.402Z,98615.09
2023-01-26T01:09:13.460Z,98615.47
2023-01-26T01:12:19.856Z,98618.31
2023-01-26T01:15:28.595Z,98614.06
2023-01-26T01:18:34.669Z,98611.31
2023-01-26T01:21:45.714Z,98608.13
2023-01-26T01:24:52.699Z,98608.88
2023-01-26T01:27:59.666Z,98602.34
2023-01-26T01:31:08.954Z,98599.53
2023-01-26T01:34:16.022Z,98595.28
2023-01-26T01:37:24.732Z,98577.06
2023-01-26T01:40:31.788Z,98580.44
2023-01-26T01:43:40.000Z,98571.38
2023-01-26T01:46:56.847Z,98577.50
2023-01-26T01:50:05.174Z,98570.09
2023-01-26T01:53:26.081Z,98573.41
2023-01-26T01:56:36.607Z,98573.66
2023-01-26T01:59:45.857Z,98575.78
2023-01-26T02:03:15.170Z,98571.38
2023-01-26T02:06:33.055Z,98574.50
2023-01-26T02:09:57.693Z,98569.44
2023-01-26T02:13:08.913Z,98566.09
2023-01-26T02:16:15.391Z,98572.75
2023-01-26T02:19:40.268Z,98575.34
2023-01-26T02:23:01.828Z,98575.16
2023-01-26T02:26:17.223Z,98566.63
2023-01-26T02:29:25.867Z,98563.16
2023-01-26T02:32:32.209Z,98568.47
2023-01-26T02:35:39.280Z,98561.53
2023-01-26T02:38:58.454Z,98567.84
2023-01-26T02:42:20.872Z,98561.59
2023-01-26T02:45:30.719Z,98554.28
2023-01-26T02:49:02.102Z,98543.59
2023-01-26T02:52:09.550Z,98541.63
2023-01-26T02:55:26.556Z,98517.13
2023-01-26T02:58:35.430Z,98529.66
2023-01-26T03:01:42.330Z,98523.25
2023-01-26T03:04:48.561Z,98516.25
2023-01-26T03:07:55.614Z,98514.88
2023-01-26T03:11:04.901Z,98509.31
2023-01-26T03:14:18.523Z,98511.34
2023-01-26T03:17:24.710Z,98496.38
2023-01-26T03:20:43.986Z,98509.66
2023-01-26T03:24:02.528Z,98497.41
2023-01-26T03:27:25.903Z,98502.66
2023-01-26T03:30:35.534Z,98497.63
2023-01-26T03:33:42.867Z,98497.63
2023-01-26T03:36:49.661Z,98494.06
2023-01-26T03:40:11.320Z,98495.00
2023-01-26T03:43:30.363Z,98502.66
2023-01-26T03:46:52.279Z,98491.97
2023-01-26T03:50:11.774Z,98490.50
2023-01-26T03:53:34.793Z,98492.78
2023-01-26T03:56:41.111Z,98486.94
2023-01-26T03:59:53.292Z,98481.16
2023-01-26T04:03:16.527Z,98469.22
2023-01-26T04:06:36.053Z,98465.38
2023-01-26T04:09:42.587Z,98462.00
2023-01-26T04:13:01.864Z,98451.53
2023-01-26T04:16:22.385Z,98447.78
2023-01-26T04:19:44.302Z,98458.66
2023-01-26T04:22:50.491Z,98446.69
2023-01-26T04:25:58.221Z,98447.75
2023-01-26T04:29:05.449Z,98440.13
2023-01-26T04:32:12.896Z,98443.69
2023-01-26T04:35:21.770Z,98449.47
2023-01-26T04:38:29.071Z,98442.84
2023-01-26T04:41:36.661Z,98446.09
2023-01-26T04:44:50.071Z,98439.09
2023-01-26T04:47:56.852Z,98440.13
2023-01-26T04:51:10.100Z,98439.63
2023-01-26T04:54:16.589Z,98448.53
2023-01-26T04:57:24.902Z,98418.44
2023-01-26T05:00:31.790Z,98449.84
2023-01-26T05:03:40.374Z,98442.22
2023-01-26T05:06:49.126Z,98436.75
2023-01-26T05:09:56.065Z,98424.44
2023-01-26T05:13:31.322Z,98431.97
2023-01-26T05:16:56.514Z,98421.00
2023-01-26T05:20:19.853Z,98423.69
2023-01-26T05:23:45.357Z,98422.66
2023-01-26T05:27:19.466Z,98411.44
2023-01-26T05:30:29.308Z,98407.91
2023-01-26T05:33:36.337Z,98411.56
2023-01-26T05:36:44.271Z,98412.28
2023-01-26T05:39:53.014Z,98413.38
2023-01-26T05:43:00.657Z,98421.16
2023-01-26T05:46:24.766Z,98420.84
2023-01-26T05:49:31.994Z,98415.31
2023-01-26T05:52:38.984Z,98423.31
2023-01-26T05:55:48.958Z,98414.75
2023-01-26T05:58:58.926Z,98427.66
2023-01-26T06:02:06.649Z,98425.00
2023-01-26T06:05:15.284Z,98424.00
2023-01-26T06:08:30.909Z,98422.28
2023-01-26T06:12:03.076Z,98425.88
2023-01-26T06:15:27.091Z,98425.63
2023-01-26T06:18:34.618Z,98422.97
2023-01-26T06:21:41.785Z,98429.66
2023-01-26T06:24:48.150Z,98422.31
2023-01-26T06:28:01.364Z,98422.66
2023-01-26T06:31:11.930Z,98422.03
2023-01-26T06:34:20.214Z,98426.31
2023-01-26T06:37:26.618Z,98424.09
2023-01-26T06:40:34.112Z,98423.59
2023-01-26T06:43:47.682Z,98414.53
2023-01-26T06:46:54.976Z,98423.59
2023-01-26T06:50:03.038Z,98413.28
2023-01-26T06:53:32.760Z,98414.25
2023-01-26T06:56:56.161Z,98412.19
2023-01-26T07:00:31.839Z,98407.41
2023-01-26T07:03:52.994Z,98402.41
2023-01-26T07:07:00.492Z,98401.50
2023-01-26T07:10:07.695Z,98397.28
2023-01-26T07:13:14.674Z,98391.78
2023-01-26T07:16:23.475Z,98399.94
2023-01-26T07:19:31.609Z,98387.00
2023-01-26T07:22:37.701Z,98382.78
2023-01-26T07:25:47.170Z,98388.59
2023-01-26T07:28:53.266Z,98381.91
2023-01-26T07:32:02.843Z,98375.00
2023-01-26T07:35:10.910Z,98390.75
2023-01-26T07:38:18.551Z,98388.88
2023-01-26T07:41:24.610Z,98386.88
2023-01-26T07:44:31.611Z,98386.09
2023-01-26T07:47:40.641Z,98379.06
2023-01-26T07:50:48.806Z,98385.50
2023-01-26T07:53:54.920Z,98385.63
2023-01-26T07:57:01.952Z,98386.22
2023-01-26T08:00:12.754Z,98365.19
2023-01-26T08:03:22.538Z,98384.94
2023-01-26T08:06:28.830Z,98385.78
2023-01-26T08:09:36.316Z,98387.97
2023-01-26T08:12:42.419Z,98388.41
2023-01-26T08:15:49.434Z,98389.78
2023-01-26T08:18:58.106Z,98396.28
2023-01-26T08:22:05.091Z,98399.41
2023-01-26T08:25:12.798Z,98392.91
2023-01-26T08:28:21.196Z,98382.34
2023-01-26T08:31:28.520Z,98379.81
2023-01-26T08:34:39.428Z,98356.91
2023-01-26T08:37:45.533Z,98374.66
2023-01-26T08:40:55.964Z,98382.50
2023-01-26T08:44:02.248Z,98378.44
2023-01-26T08:47:09.234Z,98384.06
2023-01-26T08:50:18.232Z,98387.75
2023-01-26T08:53:25.466Z,98383.16
2023-01-26T08:56:31.540Z,98385.34
2023-01-26T08:59:38.302Z,98387.88
2023-01-26T09:02:44.379Z,98382.97
2023-01-26T09:05:54.068Z,98387.56
2023-01-26T09:09:00.473Z,98388.28
2023-01-26T09:12:08.506Z,98389.66
2023-01-26T09:15:15.172Z,98390.41
2023-01-26T09:18:22.304Z,98388.63
2023-01-26T09:21:31.134Z,98390.19
2023-01-26T09:24:38.062Z,98366.56
2023-01-26T09:27:44.886Z,98387.13
2023-01-26T09:30:51.904Z,98389.66
2023-01-26T09:33:58.051Z,98380.13
2023-01-26T09:37:10.013Z,98375.09
2023-01-26T09:40:26.248Z,98373.44
2023-01-26T09:43:43.298Z,98370.06
2023-01-26T09:47:09.205Z,98365.88
2023-01-26T09:50:26.180Z,98370.38
2023-01-26T09:53:49.696Z,98369.84
2023-01-26T09:56:58.946Z,98359.16
2023-01-26T10:00:13.346Z,98352.88
2023-01-26T10:03:35.759Z,98356.63
2023-01-26T10:06:43.181Z,98348.75
2023-01-26T10:10:05.536Z,98350.50
2023-01-26T10:13:19.836Z,98352.88
2023-01-26T10:16:29.491Z,98352.38
2023-01-26T10:19:44.048Z,98348.22
2023-01-26T10:22:57.882Z,98341.06
2023-01-26T10:26:18.036Z,98339.00
2023-01-26T10:29:26.464Z,98335.31
2023-01-26T10:32:32.629Z,98342.44
2023-01-26T10:35:39.762Z,98330.28
2023-01-26T10:38:50.136Z,98333.53
2023-01-26T10:42:05.791Z,98332.84
2023-01-26T10:45:33.471Z,98326.66
2023-01-26T10:48:40.407Z,98328.94
2023-01-26T10:51:49.570Z,98317.53
2023-01-26T10:55:20.356Z,98321.59
2023-01-26T10:58:51.707Z,98321.31
2023-01-26T11:02:03.850Z,98319.88
2023-01-26T11:05:27.194Z,98306.38
2023-01-26T11:08:38.456Z,98305.88
2023-01-26T11:12:01.353Z,98302.63
2023-01-26T11:15:23.283Z,98304.75
2023-01-26T11:18:45.507Z,98297.94
2023-01-26T11:22:01.775Z,98295.47
2023-01-26T11:25:26.037Z,98302.56
2023-01-26T11:28:57.649Z,98309.69
2023-01-26T11:32:22.264Z,98304.38
2023-01-26T11:35:46.354Z,98284.72
2023-01-26T11:39:10.765Z,98281.59
2023-01-26T11:42:40.126Z,98275.72
2023-01-26T11:46:19.597Z,98271.22
2023-01-26T11:49:54.465Z,98259.34
2023-01-26T11:53:31.051Z,98258.78
2023-01-26T11:56:53.451Z,98260.09
2023-01-26T12:00:29.093Z,98253.84
2023-01-26T12:03:48.459Z,98256.91
2023-01-26T12:07:06.860Z,98246.03
2023-01-26T12:10:19.189Z,98240.44
2023-01-26T12:13:39.290Z,98227.81
2023-01-26T12:17:18.028Z,98237.38
2023-01-26T12:20:41.543Z,98227.28
2023-01-26T12:24:04.132Z,98233.84
2023-01-26T12:27:26.907Z,98230.09
2023-01-26T12:30:48.030Z,98220.09
2023-01-26T12:34:00.117Z,98220.66
2023-01-26T12:37:44.657Z,98215.91
2023-01-26T12:41:13.795Z,98221.84
2023-01-26T12:44:39.941Z,98221.75
2023-01-26T12:47:55.934Z,98205.78
2023-01-26T12:51:13.008Z,98215.25
2023-01-26T12:54:31.114Z,98210.16
2023-01-26T12:57:52.202Z,98212.19
2023-01-26T13:01:08.251Z,98200.94
2023-01-26T13:04:19.793Z,98205.66
2023-01-26T13:07:40.263Z,98203.53
2023-01-26T13:10:52.965Z,98197.81
2023-01-26T13:14:01.734Z,98201.97
2023-01-26T13:17:51.444Z,98210.34
2023-01-26T13:20:57.647Z,98210.81
2023-01-26T13:24:05.033Z,98204.44
2023-01-26T13:27:33.510Z,98206.16
2023-01-26T13:30:50.614Z,98203.66
2023-01-26T13:33:57.184Z,98199.72
2023-01-26T13:37:16.241Z,98198.06
2023-01-26T13:40:31.223Z,98186.97
2023-01-26T13:43:46.709Z,98201.53
2023-01-26T13:47:05.037Z,98199.72
2023-01-26T13:50:26.709Z,98203.97
2023-01-26T13:53:46.742Z,98194.22
2023-01-26T13:57:09.110Z,98193.53
2023-01-26T14:00:17.490Z,98188.16
2023-01-26T14:03:27.584Z,98189.34
2023-01-26T14:06:35.530Z,98193.63
2023-01-26T14:09:52.888Z,98192.09
2023-01-26T14:13:01.446Z,98158.25
2023-01-26T14:16:10.935Z,98187.44
2023-01-26T14:19:23.443Z,98188.16
2023-01-26T14:22:31.228Z,98190.19
2023-01-26T14:25:38.079Z,98194.84
2023-01-26T14:28:47.100Z,98198.03
2023-01-26T14:31:57.925Z,98191.34
2023-01-26T14:35:24.263Z,98189.31
2023-01-26T14:38:33.293Z,98195.66
2023-01-26T14:41:40.842Z,98194.47
2023-01-26T14:44:47.282Z,98183.97
2023-01-26T14:47:58.529Z,98186.50
2023-01-26T14:51:17.275Z,98171.94
2023-01-26T14:54:34.098Z,98181.59
2023-01-26T14:57:40.625Z,98171.09
2023-01-26T15:00:52.283Z,98180.53
2023-01-26T15:04:09.463Z,98179.91
2023-01-26T15:07:39.153Z,98178.72
2023-01-26T15:10:55.955Z,98175.19
2023-01-26T15:14:03.162Z,98173.97
2023-01-26T15:17:09.794Z,98167.28
2023-01-26T15:20:46.129Z,98175.50
2023-01-26T15:23:58.572Z,98173.00
2023-01-26T15:27:10.563Z,98173.44
2023-01-26T15:30:22.308Z,98176.97
2023-01-26T15:33:56.206Z,98187.00
2023-01-26T15:37:03.908Z,98181.03
2023-01-26T15:40:15.663Z,98182.56
2023-01-26T15:43:24.078Z,98175.72
2023-01-26T15:46:31.455Z,98173.53
2023-01-26T15:49:37.697Z,98178.53
2023-01-26T15:52:45.161Z,98181.22
2023-01-26T15:55:56.479Z,98175.69
2023-01-26T15:59:03.610Z,98177.09
2023-01-26T16:02:19.566Z,98184.53
2023-01-26T16:05:28.271Z,98180.44
2023-01-26T16:08:35.107Z,98178.91
2023-01-26T16:11:54.168Z,98174.25
2023-01-26T16:15:00.587Z,98140.44
2023-01-26T16:18:07.815Z,98172.00
2023-01-26T16:21:24.134Z,98174.63
2023-01-26T16:24:31.227Z,98173.06
2023-01-26T16:27:40.170Z,98169.97
2023-01-26T16:30:52.566Z,98169.88
2023-01-26T16:33:59.695Z,98168.31
2023-01-26T16:37:06.869Z,98152.13
2023-01-26T16:40:17.445Z,98168.59
2023-01-26T16:43:30.984Z,98162.31
2023-01-26T16:46:37.247Z,98163.88
2023-01-26T16:49:45.751Z,98163.25
2023-01-26T16:52:52.437Z,98150.91
2023-01-26T16:55:59.941Z,98161.19
2023-01-26T16:59:08.904Z,98152.63
2023-01-26T17:02:28.771Z,98162.94
2023-01-26T17:05:35.230Z,98161.97
2023-01-26T17:08:42.975Z,98158.41
2023-01-26T17:11:49.057Z,98153.81
2023-01-26T17:14:58.666Z,98158.91
2023-01-26T17:18:04.816Z,98162.44
2023-01-26T17:21:12.000Z,98154.22
2023-01-26T17:24:18.154Z,98164.56
2023-01-26T17:27:26.073Z,98169.88
2023-01-26T17:30:34.861Z,98171.44
2023-01-26T17:33:42.909Z,98172.25
2023-01-26T17:36:49.126Z,98151.31
2023-01-26T17:39:56.283Z,98166.03
2023-01-26T17:43:02.493Z,98177.69
2023-01-26T17:46:17.119Z,98149.41
2023-01-26T17:49:25.247Z,98165.16
2023-01-26T17:52:35.579Z,98164.47
2023-01-26T17:55:41.768Z,98168.50
2023-01-26T17:58:54.049Z,98179.06
2023-01-26T18:02:03.097Z,98183.19
2023-01-26T18:05:12.655Z,98181.25
2023-01-26T18:08:19.324Z,98190.16
2023-01-26T18:11:27.697Z,98182.69
2023-01-26T18:14:36.227Z,98179.72
2023-01-26T18:17:45.850Z,98185.97
2023-01-26T18:20:52.017Z,98182.66
2023-01-26T18:24:02.699Z,98185.53
2023-01-26T18:27:08.877Z,98189.91
2023-01-26T18:30:17.245Z,98182.13
2023-01-26T18:33:26.022Z,98189.38
2023-01-26T18:36:34.309Z,98193.44
2023-01-26T18:39:41.073Z,98188.94
2023-01-26T18:42:49.518Z,98191.50
2023-01-26T18:45:55.718Z,98191.06
2023-01-26T18:49:05.420Z,98181.06
2023-01-26T18:52:12.840Z,98179.84
2023-01-26T18:55:20.458Z,98180.47
2023-01-26T18:58:26.534Z,98175.22
2023-01-26T19:01:33.634Z,98182.44
2023-01-26T19:04:43.562Z,98180.47
2023-01-26T19:07:50.640Z,98184.84
2023-01-26T19:10:56.799Z,98173.97
2023-01-26T19:14:05.346Z,98172.91
2023-01-26T19:17:11.530Z,98173.16
2023-01-26T19:20:22.671Z,98171.41
2023-01-26T19:23:30.141Z,98174.22
2023-01-26T19:26:37.622Z,98176.75
2023-01-26T19:29:44.071Z,98181.97
2023-01-26T19:33:04.659Z,98181.34
2023-01-26T19:36:13.984Z,98185.09
2023-01-26T19:39:20.964Z,98182.72
2023-01-26T19:42:27.165Z,98182.50
2023-01-26T19:45:34.789Z,98190.91
2023-01-26T19:48:42.288Z,98186.91
2023-01-26T19:51:53.530Z,98184.69
2023-01-26T19:54:59.805Z,98183.13
2023-01-26T19:58:06.690Z,98184.28
2023-01-26T20:01:15.760Z,98181.53
2023-01-26T20:04:22.962Z,98180.66
2023-01-26T20:07:32.039Z,98178.78
2023-01-26T20:10:39.019Z,98172.53
2023-01-26T20:13:46.243Z,98171.66
2023-01-26T20:16:53.399Z,98170.81
2023-01-26T20:19:59.880Z,98164.69
2023-01-26T20:23:09.980Z,98162.06
2023-01-26T20:26:16.215Z,98167.75
2023-01-26T20:29:24.466Z,98167.75
2023-01-26T20:32:31.082Z,98163.53
2023-01-26T20:35:38.187Z,98164.81
2023-01-26T20:38:48.336Z,98152.66
2023-01-26T20:41:57.417Z,98157.19
2023-01-26T20:45:04.076Z,98151.59
2023-01-26T20:48:11.651Z,98148.06
2023-01-26T20:51:21.870Z,98150.78
2023-01-26T20:54:31.547Z,98149.22
2023-01-26T20:57:38.316Z,98153.38
2023-01-26T21:00:48.006Z,98156.16
2023-01-26T21:03:55.435Z,98157.16
2023-01-26T21:07:02.544Z,98147.75
2023-01-26T21:10:13.417Z,98154.16
2023-01-26T21:13:20.734Z,98149.59
2023-01-26T21:16:28.610Z,98120.66
2023-01-26T21:19:35.707Z,98146.84
2023-01-26T21:22:41.963Z,98149.84
2023-01-26T21:25:51.684Z,98146.75
2023-01-26T21:29:01.347Z,98148.41
2023-01-26T21:32:09.250Z,98149.94
2023-01-26T21:35:16.880Z,98142.31
2023-01-26T21:38:23.866Z,98148.94
2023-01-26T21:41:47.631Z,98153.56
2023-01-26T21:45:07.175Z,98137.63
2023-01-26T21:48:25.744Z,98137.63
2023-01-26T21:51:45.862Z,98141.25
2023-01-26T21:54:52.036Z,98140.16
2023-01-26T21:58:14.044Z,98133.22
2023-01-26T22:01:20.413Z,98139.31
2023-01-26T22:04:31.339Z,98131.56
2023-01-26T22:07:37.638Z,98127.06
2023-01-26T22:10:44.716Z,98128.00
2023-01-26T22:13:53.552Z,98124.56
2023-01-26T22:17:00.665Z,98115.88
2023-01-26T22:20:07.632Z,98116.94
2023-01-26T22:23:16.120Z,98122.75
2023-01-26T22:26:25.939Z,98117.44
2023-01-26T22:29:35.651Z,98107.28
2023-01-26T22:32:41.904Z,98114.59
2023-01-26T22:35:48.843Z,98110.63
2023-01-26T22:38:55.558Z,98117.94
2023-01-26T22:42:02.556Z,98113.53
2023-01-26T22:45:14.210Z,98106.59
2023-01-26T22:48:22.058Z,98113.13
2023-01-26T22:51:31.167Z,98112.03
2023-01-26T22:54:38.150Z,98111.31
2023-01-26T22:57:44.311Z,98114.66
2023-01-26T23:00:53.883Z,98103.56
2023-01-26T23:04:01.758Z,98113.81
2023-01-26T23:07:08.770Z,98108.91
2023-01-26T23:10:15.255Z,98105.38
2023-01-26T23:13:22.303Z,98080.81
2023-01-26T23:16:31.800Z,98105.84
2023-01-26T23:19:38.757Z,98099.66
2023-01-26T23:22:44.927Z,98105.16
2023-01-26T23:25:55.300Z,98101.81
2023-01-26T23:29:01.344Z,98099.94
2023-01-26T23:32:12.396Z,98104.72
2023-01-26T23:35:18.811Z,98104.69
2023-01-26T23:38:28.941Z,98101.19
2023-01-26T23:41:35.012Z,98095.22
2023-01-26T23:44:41.992Z,98099.63
2023-01-26T23:47:52.158Z,98108.69
2023-01-26T23:51:00.297Z,98099.91
2023-01-26T23:54:06.556Z,98098.84
2023-01-26T23:57:13.711Z,98103.94
